Rushville, Missouri
Current Conditions -  °F | °C
As of 12:53 AM on Sunday 26 Oct 2014 (Local Time) from KSTJ Reporting Station
Clear Clear  
Wind Chill: 61°   Ceiling: Unl
Heat Index: 61°   Visibility: 10mi
Dew Point: 47°   Wind: 6mph
Humidity: 60%   Direction: 90°E
Pressure: 29.99"   Gusts: NA
Location:  39.59°N, 95.03°W
Report Text: KSTJ 260553Z AUTO 09005KT 10SM CLR 16/08 A2999 RMK AO2 SLP151 T01610083 10200 20133 402720089 58004
Loading
Personal Weather Stations






























Interactive Weather Map
Tropical Storm Tracking
New forecast layout! Learn more

10-Day Weather Forecast

Advertisements
Track Severe Weather on mobile